createdAt,value
2018-09-30T00:00:53.864Z,84.63
2018-09-30T00:02:01.926Z,84.16
2018-09-30T00:03:09.994Z,84.01
2018-09-30T00:04:18.049Z,84.59
2018-09-30T00:05:26.117Z,84.78
2018-09-30T00:06:34.173Z,84.59
2018-09-30T00:07:42.241Z,84.40
2018-09-30T00:08:50.293Z,84.49
2018-09-30T00:09:58.353Z,85.06
2018-09-30T00:11:06.418Z,84.87
2018-09-30T00:12:14.480Z,84.87
2018-09-30T00:13:22.526Z,85.63
2018-09-30T00:14:33.193Z,85.16
2018-09-30T00:15:40.683Z,84.59
2018-09-30T00:16:48.745Z,85.06
2018-09-30T00:17:57.078Z,85.25
2018-09-30T00:19:04.866Z,85.06
2018-09-30T00:20:12.919Z,85.63
2018-09-30T00:21:21.012Z,85.44
2018-09-30T00:22:29.055Z,86.30
2018-09-30T00:23:37.120Z,85.91
2018-09-30T00:24:45.173Z,85.82
2018-09-30T00:25:53.218Z,85.72
2018-09-30T00:27:01.306Z,86.30
2018-09-30T00:28:09.342Z,85.53
2018-09-30T00:29:17.443Z,85.82
2018-09-30T00:30:25.479Z,85.63
2018-09-30T00:31:33.545Z,86.20
2018-09-30T00:32:41.616Z,85.63
2018-09-30T00:33:49.660Z,85.82
2018-09-30T00:34:57.719Z,85.82
2018-09-30T00:36:05.791Z,86.30
2018-09-30T00:37:13.843Z,86.44
2018-09-30T00:38:21.890Z,85.78
2018-09-30T00:39:29.965Z,86.25
2018-09-30T00:40:38.030Z,86.16
2018-09-30T00:41:46.088Z,86.25
2018-09-30T00:42:54.139Z,86.25
2018-09-30T00:44:02.203Z,86.25
2018-09-30T00:45:10.258Z,86.35
2018-09-30T00:46:18.329Z,86.72
2018-09-30T00:47:26.484Z,86.16
2018-09-30T00:48:34.445Z,86.35
2018-09-30T00:49:42.511Z,87.11
2018-09-30T00:50:50.569Z,86.63
2018-09-30T00:51:58.624Z,86.54
2018-09-30T00:53:06.690Z,86.72
2018-09-30T00:54:14.755Z,86.44
2018-09-30T00:55:22.792Z,86.63
2018-09-30T00:56:30.869Z,87.01
2018-09-30T00:57:38.928Z,87.11
2018-09-30T00:58:46.987Z,87.01
2018-09-30T00:59:55.038Z,87.11
2018-09-30T01:01:03.092Z,87.11
2018-09-30T01:02:11.162Z,86.91
2018-09-30T01:03:19.219Z,87.20
2018-09-30T01:04:27.276Z,87.11
2018-09-30T01:05:35.349Z,87.20
2018-09-30T01:06:43.379Z,87.11
2018-09-30T01:07:51.459Z,87.11
2018-09-30T01:08:59.508Z,87.01
2018-09-30T01:10:11.049Z,87.01
2018-09-30T01:11:15.645Z,87.11
2018-09-30T01:12:23.701Z,87.01
2018-09-30T01:13:31.768Z,87.20
2018-09-30T01:14:39.841Z,87.20
2018-09-30T01:15:47.902Z,87.30
2018-09-30T01:16:55.957Z,86.82
2018-09-30T01:18:04.036Z,87.49
2018-09-30T01:19:12.084Z,87.49
2018-09-30T01:20:20.138Z,86.91
2018-09-30T01:21:28.201Z,86.72
2018-09-30T01:22:36.280Z,87.39
2018-09-30T01:23:44.336Z,87.35
2018-09-30T01:24:52.390Z,87.45
2018-09-30T01:26:00.492Z,87.45
2018-09-30T01:27:08.515Z,87.06
2018-09-30T01:28:16.580Z,87.63
2018-09-30T01:29:24.629Z,87.25
2018-09-30T01:30:32.696Z,87.35
2018-09-30T01:31:40.757Z,87.25
2018-09-30T01:32:48.821Z,87.25
2018-09-30T01:33:56.883Z,87.63
2018-09-30T01:35:04.944Z,87.54
2018-09-30T01:36:12.975Z,88.10
2018-09-30T01:37:21.043Z,87.25
2018-09-30T01:38:29.126Z,87.45
2018-09-30T01:39:37.177Z,87.25
2018-09-30T01:40:45.242Z,88.01
2018-09-30T01:41:53.270Z,87.92
2018-09-30T01:43:01.355Z,87.73
2018-09-30T01:44:09.424Z,87.63
2018-09-30T01:45:17.476Z,88.20
2018-09-30T01:46:25.531Z,87.82
2018-09-30T01:47:33.580Z,88.01
2018-09-30T01:48:41.651Z,88.01
2018-09-30T01:49:49.716Z,88.01
2018-09-30T01:50:57.781Z,88.48
2018-09-30T01:52:05.895Z,88.10
2018-09-30T01:53:13.912Z,88.58
2018-09-30T01:54:21.964Z,88.58
2018-09-30T01:55:30.020Z,88.39
2018-09-30T01:56:38.089Z,88.39
2018-09-30T01:57:46.159Z,88.20
2018-09-30T01:58:54.211Z,88.58
2018-09-30T02:00:02.281Z,88.68
2018-09-30T02:01:10.335Z,88.20
2018-09-30T02:02:18.414Z,88.20
2018-09-30T02:03:26.482Z,88.39
2018-09-30T02:04:34.531Z,88.48
2018-09-30T02:05:42.562Z,88.29
2018-09-30T02:06:50.653Z,88.48
2018-09-30T02:07:58.700Z,88.48
2018-09-30T02:09:06.768Z,88.39
2018-09-30T02:10:14.815Z,88.96
2018-09-30T02:11:22.871Z,88.87
2018-09-30T02:12:30.947Z,89.06
2018-09-30T02:13:39.002Z,89.15
2018-09-30T02:14:47.070Z,89.34
2018-09-30T02:15:55.130Z,89.43
2018-09-30T02:17:03.159Z,89.43
2018-09-30T02:18:11.256Z,89.62
2018-09-30T02:19:19.308Z,89.25
2018-09-30T02:20:27.366Z,89.81
2018-09-30T02:21:35.422Z,89.62
2018-09-30T02:22:43.484Z,89.34
2018-09-30T02:23:51.548Z,89.81
2018-09-30T02:24:59.613Z,89.48
2018-09-30T02:26:07.660Z,89.20
2018-09-30T02:27:15.762Z,88.82
2018-09-30T02:28:23.801Z,88.82
2018-09-30T02:29:31.860Z,89.20
2018-09-30T02:30:39.916Z,88.92
2018-09-30T02:31:47.978Z,88.92
2018-09-30T02:32:56.041Z,88.92
2018-09-30T02:34:04.106Z,88.92
2018-09-30T02:35:12.158Z,89.48
2018-09-30T02:36:20.219Z,89.39
2018-09-30T02:37:28.297Z,89.48
2018-09-30T02:38:36.344Z,90.05
2018-09-30T02:39:44.394Z,89.96
2018-09-30T02:40:52.449Z,90.05
2018-09-30T02:42:00.524Z,89.86
2018-09-30T02:43:08.588Z,89.77
2018-09-30T02:44:16.659Z,90.38
2018-09-30T02:45:24.723Z,90.43
2018-09-30T02:46:32.761Z,90.05
2018-09-30T02:47:40.830Z,89.86
2018-09-30T02:48:48.888Z,89.86
2018-09-30T02:49:56.939Z,90.05
2018-09-30T02:51:05.010Z,90.05
2018-09-30T02:52:13.044Z,89.86
2018-09-30T02:53:21.137Z,90.34
2018-09-30T02:54:29.214Z,90.43
2018-09-30T02:55:37.247Z,90.53
2018-09-30T02:56:45.318Z,90.34
2018-09-30T02:57:53.340Z,90.43
2018-09-30T02:59:01.431Z,89.86
2018-09-30T03:00:09.483Z,90.24
2018-09-30T03:01:17.562Z,90.34
2018-09-30T03:02:25.612Z,89.96
2018-09-30T03:03:33.665Z,90.05
2018-09-30T03:04:41.730Z,90.05
2018-09-30T03:05:49.786Z,91.00
2018-09-30T03:06:57.848Z,90.05
2018-09-30T03:08:05.912Z,89.86
2018-09-30T03:09:13.978Z,89.86
2018-09-30T03:10:22.032Z,90.05
2018-09-30T03:11:30.091Z,90.81
2018-09-30T03:12:38.159Z,90.34
2018-09-30T03:13:46.217Z,90.53
2018-09-30T03:14:54.274Z,90.53
2018-09-30T03:16:02.343Z,90.53
2018-09-30T03:17:10.405Z,90.15
2018-09-30T03:18:18.462Z,90.62
2018-09-30T03:19:26.522Z,90.62
2018-09-30T03:20:34.580Z,90.43
2018-09-30T03:21:42.636Z,90.81
2018-09-30T03:22:50.693Z,90.34
2018-09-30T03:23:58.747Z,90.15
2018-09-30T03:25:06.823Z,90.62
2018-09-30T03:26:14.878Z,90.24
2018-09-30T03:27:22.922Z,90.15
2018-09-30T03:28:30.984Z,89.86
2018-09-30T03:29:39.057Z,90.24
2018-09-30T03:30:47.125Z,90.05
2018-09-30T03:31:55.187Z,90.62
2018-09-30T03:33:03.213Z,90.53
2018-09-30T03:34:11.304Z,90.15
2018-09-30T03:35:19.351Z,90.91
2018-09-30T03:36:27.429Z,89.86
2018-09-30T03:37:35.478Z,90.05
2018-09-30T03:38:43.543Z,90.05
2018-09-30T03:39:51.604Z,90.05
2018-09-30T03:40:59.694Z,90.34
2018-09-30T03:42:07.735Z,90.34
2018-09-30T03:43:15.777Z,90.53
2018-09-30T03:44:23.856Z,90.62
2018-09-30T03:45:31.893Z,90.24
2018-09-30T03:46:39.989Z,90.62
2018-09-30T03:47:48.021Z,91.00
2018-09-30T03:48:56.088Z,91.19
2018-09-30T03:50:04.140Z,90.81
2018-09-30T03:51:12.197Z,90.62
2018-09-30T03:52:20.257Z,91.28
2018-09-30T03:53:28.323Z,90.81
2018-09-30T03:54:36.383Z,91.00
2018-09-30T03:55:44.445Z,90.91
2018-09-30T03:56:52.503Z,90.62
2018-09-30T03:58:00.559Z,91.00
2018-09-30T03:59:08.620Z,90.95
2018-09-30T04:00:16.682Z,91.19
2018-09-30T04:01:24.743Z,90.77
2018-09-30T04:02:32.787Z,90.48
2018-09-30T04:03:40.856Z,91.14
2018-09-30T04:04:48.921Z,91.14
2018-09-30T04:05:56.980Z,91.14
2018-09-30T04:07:05.041Z,91.33
2018-09-30T04:08:13.069Z,91.33
2018-09-30T04:09:21.158Z,91.43
2018-09-30T04:10:29.215Z,91.14
2018-09-30T04:11:37.267Z,91.71
2018-09-30T04:12:45.353Z,92.19
2018-09-30T04:13:53.383Z,91.62
2018-09-30T04:15:01.585Z,91.62
2018-09-30T04:16:09.509Z,91.90
2018-09-30T04:17:17.600Z,91.52
2018-09-30T04:18:25.647Z,92.19
2018-09-30T04:19:33.691Z,92.09
2018-09-30T04:20:41.751Z,92.47
2018-09-30T04:21:49.810Z,92.47
2018-09-30T04:22:57.866Z,92.47
2018-09-30T04:24:05.927Z,92.47
2018-09-30T04:25:13.976Z,92.00
2018-09-30T04:26:22.043Z,92.47
2018-09-30T04:27:30.762Z,92.19
2018-09-30T04:28:38.161Z,92.47
2018-09-30T04:29:46.227Z,92.38
2018-09-30T04:30:54.294Z,92.09
2018-09-30T04:32:02.346Z,92.00
2018-09-30T04:33:10.409Z,92.00
2018-09-30T04:34:18.470Z,92.09
2018-09-30T04:35:26.524Z,92.19
2018-09-30T04:36:34.591Z,92.28
2018-09-30T04:37:42.642Z,92.38
2018-09-30T04:38:50.715Z,92.38
2018-09-30T04:39:58.777Z,92.76
2018-09-30T04:41:06.821Z,93.04
2018-09-30T04:42:14.880Z,92.57
2018-09-30T04:43:22.931Z,92.94
2018-09-30T04:44:31.002Z,93.04
2018-09-30T04:45:39.064Z,93.42
2018-09-30T04:46:47.129Z,92.85
2018-09-30T04:47:55.175Z,92.85
2018-09-30T04:49:03.242Z,92.57
2018-09-30T04:50:11.436Z,92.85
2018-09-30T04:51:19.348Z,93.42
2018-09-30T04:52:27.526Z,92.76
2018-09-30T04:53:35.492Z,93.61
2018-09-30T04:54:43.520Z,93.61
2018-09-30T04:55:51.599Z,93.13
2018-09-30T04:56:59.658Z,93.51
2018-09-30T04:58:07.723Z,93.13
2018-09-30T04:59:15.774Z,93.42
2018-09-30T05:00:23.842Z,93.04
2018-09-30T05:01:31.901Z,92.85
2018-09-30T05:02:39.951Z,92.85
2018-09-30T05:03:48.024Z,92.94
2018-09-30T05:04:56.096Z,92.85
2018-09-30T05:06:04.141Z,93.23
2018-09-30T05:07:12.201Z,92.94
2018-09-30T05:08:20.259Z,93.51
2018-09-30T05:09:28.310Z,93.42
2018-09-30T05:10:36.369Z,93.23
2018-09-30T05:11:44.428Z,93.89
2018-09-30T05:12:52.494Z,93.70
2018-09-30T05:14:00.551Z,94.08
2018-09-30T05:15:08.624Z,93.42
2018-09-30T05:16:16.726Z,93.13
2018-09-30T05:17:24.736Z,93.70
2018-09-30T05:18:32.783Z,93.51
2018-09-30T05:19:40.848Z,93.61
2018-09-30T05:20:48.917Z,93.32
2018-09-30T05:21:56.981Z,93.61
2018-09-30T05:23:05.047Z,93.61
2018-09-30T05:24:13.091Z,93.61
2018-09-30T05:25:21.155Z,93.42
2018-09-30T05:26:29.260Z,93.04
2018-09-30T05:27:37.284Z,93.51
2018-09-30T05:28:45.365Z,93.51
2018-09-30T05:29:53.381Z,93.04
2018-09-30T05:31:01.491Z,93.13
2018-09-30T05:32:09.519Z,93.32
2018-09-30T05:33:17.571Z,93.70
2018-09-30T05:34:25.636Z,93.32
2018-09-30T05:35:33.702Z,93.51
2018-09-30T05:36:41.751Z,93.51
2018-09-30T05:37:49.809Z,93.51
2018-09-30T05:38:57.873Z,93.80
2018-09-30T05:40:05.936Z,93.70
2018-09-30T05:41:13.996Z,93.70
2018-09-30T05:42:22.075Z,93.99
2018-09-30T05:43:30.127Z,93.13
2018-09-30T05:44:38.175Z,93.23
2018-09-30T05:45:46.240Z,93.42
2018-09-30T05:46:54.293Z,93.51
2018-09-30T05:48:02.369Z,93.70
2018-09-30T05:49:10.496Z,93.70
2018-09-30T05:50:18.474Z,93.51
2018-09-30T05:51:26.546Z,94.18
2018-09-30T05:52:34.599Z,94.08
2018-09-30T05:53:42.657Z,94.37
2018-09-30T05:54:50.726Z,93.99
2018-09-30T05:55:58.778Z,94.18
2018-09-30T05:57:06.859Z,94.27
2018-09-30T05:58:14.910Z,94.08
2018-09-30T05:59:22.936Z,94.18
2018-09-30T06:00:31.028Z,94.18
2018-09-30T06:01:39.094Z,94.08
2018-09-30T06:02:47.140Z,93.89
2018-09-30T06:03:55.252Z,94.08
2018-09-30T06:05:03.237Z,94.18
2018-09-30T06:06:11.320Z,93.99
2018-09-30T06:07:19.378Z,94.08
2018-09-30T06:08:27.442Z,94.37
2018-09-30T06:09:35.650Z,94.27
2018-09-30T06:10:43.579Z,93.89
2018-09-30T06:11:51.628Z,94.32
2018-09-30T06:12:59.689Z,94.23
2018-09-30T06:14:07.957Z,93.75
2018-09-30T06:15:15.811Z,93.84
2018-09-30T06:16:23.868Z,93.75
2018-09-30T06:17:31.923Z,93.56
2018-09-30T06:18:39.992Z,93.84
2018-09-30T06:19:48.039Z,93.84
2018-09-30T06:20:56.121Z,93.18
2018-09-30T06:22:04.162Z,93.37
2018-09-30T06:23:12.234Z,93.84
2018-09-30T06:24:20.285Z,93.27
2018-09-30T06:25:28.350Z,93.75
2018-09-30T06:26:36.415Z,93.56
2018-09-30T06:27:44.472Z,92.94
2018-09-30T06:28:52.534Z,93.80
2018-09-30T06:30:00.587Z,93.61
2018-09-30T06:31:08.668Z,93.13
2018-09-30T06:32:16.755Z,92.85
2018-09-30T06:33:24.767Z,93.13
2018-09-30T06:34:32.816Z,92.94
2018-09-30T06:35:40.895Z,92.28
2018-09-30T06:36:48.969Z,92.09
2018-09-30T06:37:57.007Z,91.71
2018-09-30T06:39:05.083Z,91.66
2018-09-30T06:40:13.178Z,91.19
2018-09-30T06:41:21.205Z,91.66
2018-09-30T06:42:29.264Z,91.47
2018-09-30T06:43:39.338Z,92.04
2018-09-30T06:44:45.384Z,91.75
2018-09-30T06:45:54.320Z,91.28
2018-09-30T06:47:01.509Z,91.28
2018-09-30T06:48:09.554Z,91.19
2018-09-30T06:49:18.001Z,92.14
2018-09-30T06:50:25.682Z,91.71
2018-09-30T06:51:33.837Z,90.95
2018-09-30T06:52:41.804Z,91.24
2018-09-30T06:53:52.085Z,91.04
2018-09-30T06:55:01.343Z,91.24
2018-09-30T06:56:10.939Z,90.66
2018-09-30T06:57:18.733Z,90.85
2018-09-30T06:58:26.743Z,90.19
2018-09-30T06:59:34.788Z,90.57
2018-09-30T07:00:42.856Z,90.14
2018-09-30T07:01:51.188Z,89.57
2018-09-30T07:04:12.292Z,88.15
2018-09-30T07:05:21.416Z,88.15
2018-09-30T07:06:29.019Z,88.76
2018-09-30T07:07:37.116Z,88.76
2018-09-30T07:08:45.142Z,88.57
2018-09-30T07:09:53.176Z,88.28
2018-09-30T07:11:01.274Z,87.09
2018-09-30T07:12:09.332Z,86.71
2018-09-30T07:13:17.378Z,86.66
2018-09-30T07:14:25.508Z,85.52
2018-09-30T07:15:33.499Z,82.99
2018-09-30T07:16:41.599Z,82.70
2018-09-30T07:17:49.640Z,81.89
2018-09-30T07:18:57.732Z,80.98
2018-09-30T07:20:05.988Z,79.27
2018-09-30T07:21:14.047Z,76.35
2018-09-30T07:22:22.408Z,76.92
2018-09-30T07:23:30.173Z,74.29
2018-09-30T07:24:38.038Z,72.19
2018-09-30T07:25:46.101Z,69.27
2018-09-30T07:26:54.161Z,68.12
2018-09-30T07:28:02.225Z,68.16
2018-09-30T07:29:10.301Z,69.49
2018-09-30T07:30:18.355Z,69.24
2018-09-30T07:31:26.438Z,66.56
2018-09-30T07:32:34.493Z,65.71
2018-09-30T07:33:42.606Z,66.41
2018-09-30T07:34:50.697Z,64.50
2018-09-30T07:35:58.713Z,64.12
2018-09-30T07:37:06.788Z,63.35
2018-09-30T07:38:15.276Z,64.05
2018-09-30T07:39:23.499Z,62.81
2018-09-30T07:40:30.984Z,63.29
2018-09-30T07:41:39.206Z,63.19
2018-09-30T07:42:47.483Z,62.24
2018-09-30T07:43:55.364Z,62.52
2018-09-30T07:45:03.251Z,63.39
2018-09-30T07:46:12.020Z,63.10
2018-09-30T07:47:19.978Z,63.54
2018-09-30T07:48:27.456Z,63.99
2018-09-30T07:49:35.527Z,64.47
2018-09-30T07:50:43.584Z,65.33
2018-09-30T07:51:52.292Z,66.06
2018-09-30T07:53:00.340Z,65.96
2018-09-30T07:54:08.429Z,66.44
2018-09-30T07:55:15.876Z,66.35
2018-09-30T07:56:25.196Z,66.44
2018-09-30T07:57:32.007Z,66.63
2018-09-30T07:58:40.077Z,67.58
2018-09-30T07:59:48.785Z,68.63
2018-09-30T08:00:56.196Z,69.49
2018-09-30T08:02:05.020Z,68.51
2018-09-30T08:03:12.344Z,69.49
2018-09-30T08:04:20.400Z,70.36
2018-09-30T08:05:28.475Z,71.21
2018-09-30T08:06:36.653Z,71.02
2018-09-30T08:07:44.609Z,70.45
2018-09-30T08:08:52.688Z,69.97
2018-09-30T08:10:00.762Z,70.92
2018-09-30T08:11:08.814Z,71.88
2018-09-30T08:12:16.886Z,69.97
2018-09-30T08:13:24.955Z,71.41
2018-09-30T08:14:33.290Z,72.55
2018-09-30T08:15:41.256Z,72.55
2018-09-30T08:16:49.196Z,72.83
2018-09-30T08:17:57.729Z,73.41
2018-09-30T08:19:05.354Z,70.73
2018-09-30T08:20:13.334Z,71.78
2018-09-30T08:21:21.415Z,71.50
2018-09-30T08:22:29.480Z,71.50
2018-09-30T08:23:37.540Z,72.17
2018-09-30T08:24:45.606Z,72.17
2018-09-30T08:25:54.007Z,71.50
2018-09-30T08:27:01.735Z,72.26
2018-09-30T08:28:09.816Z,71.98
2018-09-30T08:29:17.879Z,70.92
2018-09-30T08:30:25.979Z,71.69
2018-09-30T08:31:34.019Z,72.17
2018-09-30T08:32:42.112Z,72.74
2018-09-30T08:33:50.711Z,71.78
2018-09-30T08:34:58.529Z,71.02
2018-09-30T08:36:06.293Z,72.26
2018-09-30T08:37:14.355Z,71.02
2018-09-30T08:38:22.410Z,71.21
2018-09-30T08:39:30.509Z,71.02
2018-09-30T08:40:38.549Z,71.21
2018-09-30T08:41:46.648Z,72.17
2018-09-30T08:42:54.679Z,70.73
2018-09-30T08:44:02.749Z,72.26
2018-09-30T08:45:10.810Z,71.69
2018-09-30T08:46:18.878Z,72.17
2018-09-30T08:47:27.064Z,70.64
2018-09-30T08:48:35.040Z,70.36
2018-09-30T08:49:43.047Z,71.41
2018-09-30T08:50:51.127Z,71.12
2018-09-30T08:51:59.213Z,70.36
2018-09-30T08:53:07.265Z,70.07
2018-09-30T08:54:15.329Z,70.83
2018-09-30T08:55:23.390Z,71.50
2018-09-30T08:56:31.460Z,70.92
2018-09-30T08:57:39.534Z,71.78
2018-09-30T08:58:47.610Z,72.26
2018-09-30T08:59:55.659Z,71.98
2018-09-30T09:01:03.729Z,70.92
2018-09-30T09:02:11.791Z,70.07
2018-09-30T09:03:19.861Z,70.10
2018-09-30T09:04:27.915Z,70.10
2018-09-30T09:05:36.006Z,69.53
2018-09-30T09:06:44.053Z,69.34
2018-09-30T09:07:52.129Z,69.87
2018-09-30T09:09:00.206Z,71.12
2018-09-30T09:10:08.256Z,70.26
2018-09-30T09:11:16.320Z,70.07
2018-09-30T09:12:24.388Z,69.91
2018-09-30T09:13:32.457Z,70.48
2018-09-30T09:14:40.536Z,72.11
2018-09-30T09:15:48.600Z,70.01
2018-09-30T09:16:56.651Z,70.77
2018-09-30T09:18:04.723Z,70.39
2018-09-30T09:19:12.770Z,70.39
2018-09-30T09:20:20.848Z,71.92
2018-09-30T09:21:28.920Z,71.92
2018-09-30T09:22:37.041Z,70.29
2018-09-30T09:23:45.052Z,70.20
2018-09-30T09:24:54.535Z,71.09
2018-09-30T09:26:02.595Z,69.95
2018-09-30T09:27:09.256Z,70.90
2018-09-30T09:28:17.323Z,69.66
2018-09-30T09:29:25.376Z,69.47
2018-09-30T09:30:33.432Z,69.76
2018-09-30T09:31:41.540Z,70.33
2018-09-30T09:32:49.582Z,69.09
2018-09-30T09:33:57.655Z,69.50
2018-09-30T09:35:05.763Z,70.27
2018-09-30T09:36:13.787Z,70.17
2018-09-30T09:37:21.853Z,71.13
2018-09-30T09:38:29.961Z,69.41
2018-09-30T09:39:37.973Z,68.74
2018-09-30T09:40:46.041Z,69.89
2018-09-30T09:41:54.122Z,69.60
2018-09-30T09:43:02.192Z,69.60
2018-09-30T09:44:10.265Z,69.12
2018-09-30T09:45:18.326Z,69.41
2018-09-30T09:46:26.392Z,70.59
2018-09-30T09:47:34.456Z,69.15
2018-09-30T09:48:42.509Z,70.78
2018-09-30T09:49:50.578Z,68.77
2018-09-30T09:50:58.657Z,68.87
2018-09-30T09:52:06.721Z,68.96
2018-09-30T09:53:14.798Z,70.50
2018-09-30T09:54:22.846Z,70.68
2018-09-30T09:55:30.927Z,70.21
2018-09-30T09:56:38.987Z,69.86
2018-09-30T09:57:47.068Z,68.13
2018-09-30T09:58:55.203Z,67.08
2018-09-30T10:00:03.162Z,66.99
2018-09-30T10:01:11.263Z,68.90
2018-09-30T10:02:19.328Z,68.90
2018-09-30T10:03:27.404Z,66.03
2018-09-30T10:04:35.461Z,64.59
2018-09-30T10:05:43.522Z,66.61
2018-09-30T10:06:51.604Z,68.36
2018-09-30T10:07:59.687Z,67.69
2018-09-30T10:09:07.740Z,67.50
2018-09-30T10:10:15.789Z,65.88
2018-09-30T10:11:23.870Z,65.88
2018-09-30T10:12:31.926Z,65.20
2018-09-30T10:13:40.004Z,65.78
2018-09-30T10:14:48.075Z,66.06
2018-09-30T10:15:56.141Z,65.68
2018-09-30T10:17:04.212Z,66.74
2018-09-30T10:18:12.264Z,65.81
2018-09-30T10:19:20.400Z,64.47
2018-09-30T10:20:28.412Z,64.76
2018-09-30T10:21:36.472Z,64.18
2018-09-30T10:22:44.558Z,66.96
2018-09-30T10:23:52.595Z,65.97
2018-09-30T10:25:00.667Z,66.29
2018-09-30T10:26:08.746Z,66.29
2018-09-30T10:27:16.798Z,64.56
2018-09-30T10:28:24.878Z,64.09
2018-09-30T10:29:32.931Z,64.09
2018-09-30T10:30:41.027Z,64.66
2018-09-30T10:31:49.093Z,63.92
2018-09-30T10:32:57.155Z,66.71
2018-09-30T10:34:05.230Z,64.40
2018-09-30T10:35:13.271Z,64.69
2018-09-30T10:36:21.348Z,64.89
2018-09-30T10:37:29.415Z,64.98
2018-09-30T10:38:37.684Z,64.92
2018-09-30T10:39:45.658Z,65.20
2018-09-30T10:40:53.645Z,64.63
2018-09-30T10:42:01.715Z,64.25
2018-09-30T10:43:09.775Z,64.05
2018-09-30T10:44:17.844Z,64.34
2018-09-30T10:45:25.896Z,64.63
2018-09-30T10:46:33.977Z,64.25
2018-09-30T10:47:42.045Z,63.48
2018-09-30T10:48:50.120Z,63.76
2018-09-30T10:49:58.169Z,62.81
2018-09-30T10:51:06.259Z,62.81
2018-09-30T10:52:14.310Z,64.92
2018-09-30T10:53:22.396Z,63.86
2018-09-30T10:54:30.501Z,64.05
2018-09-30T10:55:38.529Z,64.43
2018-09-30T10:56:46.625Z,64.18
2018-09-30T10:57:54.734Z,65.23
2018-09-30T11:00:15.040Z,62.45
2018-09-30T11:01:23.089Z,63.03
2018-09-30T11:02:31.172Z,62.45
2018-09-30T11:03:39.338Z,62.58
2018-09-30T11:04:47.303Z,62.96
2018-09-30T11:05:55.364Z,63.83
2018-09-30T11:07:03.436Z,63.45
2018-09-30T11:08:11.517Z,63.83
2018-09-30T11:09:19.575Z,62.58
2018-09-30T11:10:27.655Z,63.54
2018-09-30T11:11:35.723Z,62.39
2018-09-30T11:12:43.785Z,61.72
2018-09-30T11:13:51.859Z,63.06
2018-09-30T11:14:59.921Z,62.68
2018-09-30T11:16:08.072Z,63.92
2018-09-30T11:17:16.061Z,64.02
2018-09-30T11:18:24.174Z,62.48
2018-09-30T11:19:32.193Z,61.75
2018-09-30T11:20:40.261Z,61.55
2018-09-30T11:21:48.328Z,61.05
2018-09-30T11:22:56.398Z,61.14
2018-09-30T11:24:04.472Z,62.39
2018-09-30T11:25:14.144Z,62.96
2018-09-30T11:26:22.226Z,62.81
2018-09-30T11:27:30.289Z,62.52
2018-09-30T11:28:38.352Z,62.52
2018-09-30T11:29:46.441Z,62.81
2018-09-30T11:30:54.538Z,62.13
2018-09-30T11:32:02.557Z,60.78
2018-09-30T11:33:10.644Z,61.55
2018-09-30T11:34:18.702Z,61.75
2018-09-30T11:35:26.757Z,60.78
2018-09-30T11:36:36.848Z,60.11
2018-09-30T11:37:47.963Z,61.27
2018-09-30T11:38:52.967Z,60.69
2018-09-30T11:40:01.064Z,60.88
2018-09-30T11:41:09.139Z,62.45
2018-09-30T11:42:17.190Z,63.70
2018-09-30T11:43:25.272Z,62.55
2018-09-30T11:44:33.321Z,61.78
2018-09-30T11:45:41.412Z,60.11
2018-09-30T11:46:49.466Z,60.34
2018-09-30T11:47:57.544Z,61.27
2018-09-30T11:49:05.623Z,61.17
2018-09-30T11:50:13.694Z,60.78
2018-09-30T11:51:21.742Z,62.32
2018-09-30T11:52:29.835Z,61.01
2018-09-30T11:54:54.234Z,62.45
2018-09-30T11:56:02.295Z,62.07
2018-09-30T11:57:10.353Z,62.45
2018-09-30T11:58:18.435Z,59.57
2018-09-30T11:59:26.492Z,60.14
2018-09-30T12:00:34.571Z,61.58
2018-09-30T12:01:42.640Z,62.16
2018-09-30T12:02:53.099Z,61.11
2018-09-30T12:04:03.412Z,60.75
2018-09-30T12:05:11.478Z,60.56
2018-09-30T12:06:19.532Z,61.71
2018-09-30T12:07:27.695Z,61.71
2018-09-30T12:08:35.688Z,60.85
2018-09-30T12:09:43.751Z,60.08
2018-09-30T12:10:51.807Z,59.99
2018-09-30T12:11:59.891Z,62.58
2018-09-30T12:13:27.443Z,62.68
2018-09-30T12:14:16.224Z,60.85
2018-09-30T12:15:30.187Z,59.02
2018-09-30T12:16:34.180Z,61.91
2018-09-30T12:17:42.243Z,60.08
2018-09-30T12:18:50.335Z,61.04
2018-09-30T12:19:58.410Z,59.31
2018-09-30T12:21:06.448Z,58.92
2018-09-30T12:22:14.532Z,59.99
2018-09-30T12:23:22.591Z,60.66
2018-09-30T12:24:30.649Z,61.71
2018-09-30T12:25:38.824Z,61.71
2018-09-30T12:26:46.810Z,61.52
2018-09-30T12:27:54.874Z,62.19
2018-09-30T12:29:02.917Z,60.85
2018-09-30T12:30:13.724Z,60.56
2018-09-30T12:31:21.726Z,61.33
2018-09-30T12:32:29.758Z,59.24
2018-09-30T12:33:37.843Z,58.47
2018-09-30T12:34:45.897Z,59.05
2018-09-30T12:35:53.973Z,60.11
2018-09-30T12:37:02.054Z,61.07
2018-09-30T12:38:10.122Z,59.82
2018-09-30T12:39:19.678Z,60.01
2018-09-30T12:40:26.251Z,59.82
2018-09-30T12:41:53.610Z,60.21
2018-09-30T12:42:43.584Z,60.30
2018-09-30T12:43:51.673Z,59.15
2018-09-30T12:44:59.748Z,59.72
2018-09-30T12:46:07.796Z,60.11
2018-09-30T12:47:15.869Z,61.84
2018-09-30T12:48:23.944Z,61.65
2018-09-30T12:49:32.024Z,61.16
2018-09-30T12:50:40.082Z,59.24
2018-09-30T12:51:48.162Z,61.23
2018-09-30T12:52:56.226Z,61.36
2018-09-30T12:54:04.294Z,59.92
2018-09-30T12:55:12.369Z,60.66
2018-09-30T12:56:20.483Z,60.59
2018-09-30T12:57:28.615Z,61.94
2018-09-30T12:58:36.603Z,61.16
2018-09-30T12:59:44.653Z,60.97
2018-09-30T13:00:52.748Z,61.26
2018-09-30T13:02:00.785Z,59.92
2018-09-30T13:03:11.749Z,59.72
2018-09-30T13:04:19.755Z,59.53
2018-09-30T13:05:27.827Z,60.11
2018-09-30T13:06:35.930Z,60.30
2018-09-30T13:07:43.965Z,61.36
2018-09-30T13:08:52.040Z,60.39
2018-09-30T13:10:00.111Z,60.30
2018-09-30T13:11:08.170Z,60.11
2018-09-30T13:12:16.254Z,60.21
2018-09-30T13:13:24.355Z,60.88
2018-09-30T13:14:32.381Z,61.36
2018-09-30T13:15:40.500Z,62.41
2018-09-30T13:16:48.519Z,61.84
2018-09-30T13:17:56.594Z,62.61
2018-09-30T13:19:04.677Z,60.59
2018-09-30T13:20:12.714Z,61.84
2018-09-30T13:21:20.805Z,60.01
2018-09-30T13:22:28.930Z,59.15
2018-09-30T13:23:36.951Z,60.78
2018-09-30T13:24:45.017Z,59.34
2018-09-30T13:25:53.082Z,60.88
2018-09-30T13:27:01.159Z,60.39
2018-09-30T13:28:09.228Z,61.65
2018-09-30T13:29:17.300Z,60.88
2018-09-30T13:30:25.368Z,61.36
2018-09-30T13:31:33.429Z,60.88
2018-09-30T13:32:41.507Z,61.74
2018-09-30T13:33:49.586Z,62.61
2018-09-30T13:34:57.650Z,61.84
2018-09-30T13:36:05.733Z,62.41
2018-09-30T13:37:13.778Z,62.99
2018-09-30T13:38:21.859Z,61.46
2018-09-30T13:39:29.936Z,59.92
2018-09-30T13:40:38.102Z,60.11
2018-09-30T13:41:46.074Z,60.11
2018-09-30T13:42:54.132Z,61.46
2018-09-30T13:44:02.213Z,59.05
2018-09-30T13:45:10.279Z,58.86
2018-09-30T13:46:18.433Z,59.72
2018-09-30T13:47:26.425Z,60.01
2018-09-30T13:48:34.489Z,59.44
2018-09-30T13:49:42.550Z,61.16
2018-09-30T13:50:50.631Z,59.53
2018-09-30T13:51:58.716Z,58.76
2018-09-30T13:53:06.775Z,60.11
2018-09-30T13:54:14.843Z,60.01
2018-09-30T13:55:22.896Z,60.11
2018-09-30T13:56:30.982Z,61.26
2018-09-30T13:57:39.061Z,61.46
2018-09-30T13:58:47.126Z,60.97
2018-09-30T13:59:55.193Z,61.81
2018-09-30T14:01:03.255Z,61.16
2018-09-30T14:02:11.331Z,61.84
2018-09-30T14:03:19.395Z,62.51
2018-09-30T14:04:27.473Z,60.78
2018-09-30T14:05:35.549Z,61.84
2018-09-30T14:06:43.612Z,61.26
2018-09-30T14:07:51.700Z,61.55
2018-09-30T14:08:59.756Z,61.94
2018-09-30T14:10:07.818Z,60.30
2018-09-30T14:11:15.887Z,59.63
2018-09-30T14:12:23.964Z,59.92
2018-09-30T14:13:32.038Z,60.21
2018-09-30T14:14:40.094Z,60.11
2018-09-30T14:15:48.176Z,61.16
2018-09-30T14:16:56.249Z,61.26
2018-09-30T14:18:04.319Z,60.88
2018-09-30T14:19:12.373Z,61.46
2018-09-30T14:20:20.453Z,61.16
2018-09-30T14:21:28.530Z,60.39
2018-09-30T14:22:36.592Z,61.36
2018-09-30T14:23:44.676Z,61.74
2018-09-30T14:24:52.718Z,62.71
2018-09-30T14:26:00.810Z,61.68
2018-09-30T14:27:08.987Z,61.10
2018-09-30T14:28:16.945Z,59.75
2018-09-30T14:29:25.017Z,60.78
2018-09-30T14:30:33.085Z,61.49
2018-09-30T14:31:41.149Z,62.03
2018-09-30T14:32:49.226Z,61.39
2018-09-30T14:33:57.290Z,61.19
2018-09-30T14:35:05.363Z,62.35
2018-09-30T14:36:13.432Z,59.08
2018-09-30T14:37:21.515Z,58.31
2018-09-30T14:38:29.587Z,59.37
2018-09-30T14:39:37.650Z,58.92
2018-09-30T14:40:45.734Z,58.63